sensor_id;sensor_type;location;lat;lon;timestamp;pressure;altitude;pressure_sealevel;temperature;humidity
50282;BME280;36176;51.506;10.272;2023-07-29T00:01:57;98766.72;;;18.38;99.75
50282;BME280;36176;51.506;10.272;2023-07-29T00:04:25;98758.25;;;18.33;99.73
50282;BME280;36176;51.506;10.272;2023-07-29T00:06:52;98766.84;;;18.26;100.00
50282;BME280;36176;51.506;10.272;2023-07-29T00:09:39;98765.44;;;18.22;100.00
50282;BME280;36176;51.506;10.272;2023-07-29T00:12:08;98765.13;;;18.16;100.00
50282;BME280;36176;51.506;10.272;2023-07-29T00:14:35;98769.91;;;18.12;100.00
50282;BME280;36176;51.506;10.272;2023-07-29T00:17:02;98772.56;;;18.02;100.00
50282;BME280;36176;51.506;10.272;2023-07-29T00:19:29;98773.13;;;17.96;100.00
50282;BME280;36176;51.506;10.272;2023-07-29T00:21:56;98774.50;;;17.91;100.00
50282;BME280;36176;51.506;10.272;2023-07-29T00:24:23;98771.53;;;17.84;100.00
50282;BME280;36176;51.506;10.272;2023-07-29T00:26:50;98763.00;;;17.79;100.00
50282;BME280;36176;51.506;10.272;2023-07-29T00:29:18;98759.31;;;17.70;100.00
50282;BME280;36176;51.506;10.272;2023-07-29T00:31:45;98769.84;;;17.62;100.00
50282;BME280;36176;51.506;10.272;2023-07-29T00:34:12;98766.47;;;17.60;100.00
50282;BME280;36176;51.506;10.272;2023-07-29T00:36:44;98755.56;;;17.52;100.00
50282;BME280;36176;51.506;10.272;2023-07-29T00:39:11;98758.91;;;17.44;100.00
50282;BME280;36176;51.506;10.272;2023-07-29T00:41:38;98758.75;;;17.36;100.00
50282;BME280;36176;51.506;10.272;2023-07-29T00:44:06;98756.69;;;17.28;100.00
50282;BME280;36176;51.506;10.272;2023-07-29T00:46:34;98755.28;;;17.24;100.00
50282;BME280;36176;51.506;10.272;2023-07-29T00:49:02;98756.53;;;17.20;100.00
50282;BME280;36176;51.506;10.272;2023-07-29T00:51:29;98753.66;;;17.12;100.00
50282;BME280;36176;51.506;10.272;2023-07-29T00:53:56;98755.88;;;17.07;100.00
50282;BME280;36176;51.506;10.272;2023-07-29T00:56:23;98754.47;;;17.03;100.00
50282;BME280;36176;51.506;10.272;2023-07-29T00:58:51;98744.97;;;16.98;100.00
50282;BME280;36176;51.506;10.272;2023-07-29T01:01:23;98744.19;;;16.87;100.00
50282;BME280;36176;51.506;10.272;2023-07-29T01:03:50;98756.38;;;16.79;100.00
50282;BME280;36176;51.506;10.272;2023-07-29T01:09:25;98749.47;;;16.66;100.00
50282;BME280;36176;51.506;10.272;2023-07-29T01:14:53;98756.31;;;16.58;100.00
50282;BME280;36176;51.506;10.272;2023-07-29T01:17:26;98763.50;;;16.58;100.00
50282;BME280;36176;51.506;10.272;2023-07-29T01:20:01;98759.00;;;16.58;100.00
50282;BME280;36176;51.506;10.272;2023-07-29T01:22:37;98746.47;;;16.59;100.00
50282;BME280;36176;51.506;10.272;2023-07-29T01:25:04;98748.91;;;16.62;100.00
50282;BME280;36176;51.506;10.272;2023-07-29T01:27:31;98745.97;;;16.65;100.00
50282;BME280;36176;51.506;10.272;2023-07-29T01:29:59;98748.66;;;16.65;100.00
50282;BME280;36176;51.506;10.272;2023-07-29T01:32:39;98744.06;;;16.56;100.00
50282;BME280;36176;51.506;10.272;2023-07-29T01:35:15;98738.50;;;16.48;100.00
50282;BME280;36176;51.506;10.272;2023-07-29T01:37:50;98744.09;;;16.45;100.00
50282;BME280;36176;51.506;10.272;2023-07-29T01:40:18;98743.97;;;16.46;100.00
50282;BME280;36176;51.506;10.272;2023-07-29T01:42:46;98749.94;;;16.50;100.00
50282;BME280;36176;51.506;10.272;2023-07-29T01:45:14;98741.53;;;16.54;100.00
50282;BME280;36176;51.506;10.272;2023-07-29T01:47:41;98744.41;;;16.63;100.00
50282;BME280;36176;51.506;10.272;2023-07-29T01:50:09;98740.34;;;16.68;100.00
50282;BME280;36176;51.506;10.272;2023-07-29T01:52:36;98749.94;;;16.71;100.00
50282;BME280;36176;51.506;10.272;2023-07-29T01:55:04;98752.88;;;16.79;100.00
50282;BME280;36176;51.506;10.272;2023-07-29T01:57:31;98741.53;;;16.87;100.00
50282;BME280;36176;51.506;10.272;2023-07-29T01:59:58;98742.25;;;16.89;100.00
50282;BME280;36176;51.506;10.272;2023-07-29T02:02:25;98745.38;;;16.94;100.00
50282;BME280;36176;51.506;10.272;2023-07-29T02:04:53;98743.28;;;16.97;100.00
50282;BME280;36176;51.506;10.272;2023-07-29T02:07:21;98732.31;;;17.00;100.00
50282;BME280;36176;51.506;10.272;2023-07-29T02:09:48;98726.69;;;17.04;100.00
50282;BME280;36176;51.506;10.272;2023-07-29T02:12:15;98717.69;;;17.05;100.00
50282;BME280;36176;51.506;10.272;2023-07-29T02:14:42;98728.16;;;17.08;100.00
50282;BME280;36176;51.506;10.272;2023-07-29T02:17:09;98711.94;;;17.09;100.00
50282;BME280;36176;51.506;10.272;2023-07-29T02:19:36;98721.41;;;17.13;100.00
50282;BME280;36176;51.506;10.272;2023-07-29T02:22:04;98721.84;;;17.18;100.00
50282;BME280;36176;51.506;10.272;2023-07-29T02:24:31;98727.53;;;17.25;100.00
50282;BME280;36176;51.506;10.272;2023-07-29T02:26:58;98726.28;;;17.29;100.00
50282;BME280;36176;51.506;10.272;2023-07-29T02:29:25;98723.34;;;17.32;100.00
50282;BME280;36176;51.506;10.272;2023-07-29T02:31:53;98725.75;;;17.35;100.00
50282;BME280;36176;51.506;10.272;2023-07-29T02:34:23;98729.97;;;17.38;100.00
50282;BME280;36176;51.506;10.272;2023-07-29T02:36:50;98727.19;;;17.39;100.00
50282;BME280;36176;51.506;10.272;2023-07-29T02:39:17;98725.22;;;17.41;100.00
50282;BME280;36176;51.506;10.272;2023-07-29T02:41:44;98724.94;;;17.44;100.00
50282;BME280;36176;51.506;10.272;2023-07-29T02:44:11;98720.19;;;17.48;100.00
50282;BME280;36176;51.506;10.272;2023-07-29T02:46:38;98716.38;;;17.51;100.00
50282;BME280;36176;51.506;10.272;2023-07-29T02:49:06;98722.47;;;17.53;100.00
50282;BME280;36176;51.506;10.272;2023-07-29T02:51:33;98718.78;;;17.54;100.00
50282;BME280;36176;51.506;10.272;2023-07-29T02:54:00;98722.19;;;17.56;100.00
50282;BME280;36176;51.506;10.272;2023-07-29T02:56:28;98725.69;;;17.56;100.00
50282;BME280;36176;51.506;10.272;2023-07-29T02:58:55;98729.22;;;17.57;100.00
50282;BME280;36176;51.506;10.272;2023-07-29T03:01:22;98725.56;;;17.58;100.00
50282;BME280;36176;51.506;10.272;2023-07-29T03:03:51;98722.63;;;17.61;100.00
50282;BME280;36176;51.506;10.272;2023-07-29T03:06:19;98714.47;;;17.62;100.00
50282;BME280;36176;51.506;10.272;2023-07-29T03:08:46;98705.31;;;17.65;100.00
50282;BME280;36176;51.506;10.272;2023-07-29T03:11:14;98696.16;;;17.68;100.00
50282;BME280;36176;51.506;10.272;2023-07-29T03:13:43;98702.06;;;17.71;100.00
50282;BME280;36176;51.506;10.272;2023-07-29T03:16:13;98702.91;;;17.72;100.00
50282;BME280;36176;51.506;10.272;2023-07-29T03:18:42;98706.84;;;17.68;100.00
50282;BME280;36176;51.506;10.272;2023-07-29T03:21:09;98713.59;;;17.62;100.00
50282;BME280;36176;51.506;10.272;2023-07-29T03:23:37;98708.78;;;17.56;100.00
50282;BME280;36176;51.506;10.272;2023-07-29T03:26:05;98715.72;;;17.58;100.00
50282;BME280;36176;51.506;10.272;2023-07-29T03:28:41;98708.09;;;17.63;100.00
50282;BME280;36176;51.506;10.272;2023-07-29T03:31:09;98698.94;;;17.66;100.00
50282;BME280;36176;51.506;10.272;2023-07-29T03:33:37;98696.00;;;17.69;100.00
50282;BME280;36176;51.506;10.272;2023-07-29T03:36:04;98703.78;;;17.72;100.00
50282;BME280;36176;51.506;10.272;2023-07-29T03:38:31;98695.75;;;17.72;100.00
50282;BME280;36176;51.506;10.272;2023-07-29T03:40:59;98692.34;;;17.70;100.00
50282;BME280;36176;51.506;10.272;2023-07-29T03:43:29;98692.34;;;17.70;100.00
50282;BME280;36176;51.506;10.272;2023-07-29T03:45:56;98685.03;;;17.72;100.00
50282;BME280;36176;51.506;10.272;2023-07-29T03:48:23;98673.88;;;17.67;100.00
50282;BME280;36176;51.506;10.272;2023-07-29T03:50:50;98667.53;;;17.68;100.00
50282;BME280;36176;51.506;10.272;2023-07-29T03:53:18;98653.69;;;17.63;100.00
50282;BME280;36176;51.506;10.272;2023-07-29T03:55:45;98660.72;;;17.64;100.00
50282;BME280;36176;51.506;10.272;2023-07-29T03:58:12;98650.00;;;17.64;100.00
50282;BME280;36176;51.506;10.272;2023-07-29T04:00:39;98650.72;;;17.66;100.00
50282;BME280;36176;51.506;10.272;2023-07-29T04:03:06;98662.03;;;17.70;100.00
50282;BME280;36176;51.506;10.272;2023-07-29T04:05:34;98665.56;;;17.70;100.00
50282;BME280;36176;51.506;10.272;2023-07-29T04:08:01;98675.16;;;17.73;100.00
50282;BME280;36176;51.506;10.272;2023-07-29T04:57:06;98677.06;;;20.99;75.13
50282;BME280;36176;51.506;10.272;2023-07-29T05:00:23;98683.16;;;21.61;71.45
50282;BME280;36176;51.506;10.272;2023-07-29T05:28:15;98674.34;;;21.43;77.65
50282;BME280;36176;51.506;10.272;2023-07-29T05:30:43;58343.00;;;-145.31;100.00
50282;BME280;36176;51.506;10.272;2023-07-29T05:33:10;98677.41;;;21.48;71.22
50282;BME280;36176;51.506;10.272;2023-07-29T05:35:52;98680.50;;;21.09;72.37
50282;BME280;36176;51.506;10.272;2023-07-29T05:39:14;98662.34;;;20.49;89.46
50282;BME280;36176;51.506;10.272;2023-07-29T05:41:42;98658.44;;;19.25;97.40
50282;BME280;36176;51.506;10.272;2023-07-29T05:44:10;98661.97;;;18.88;100.00
50282;BME280;36176;51.506;10.272;2023-07-29T05:46:37;98663.09;;;18.66;100.00
50282;BME280;36176;51.506;10.272;2023-07-29T05:49:05;98668.31;;;18.58;100.00
50282;BME280;36176;51.506;10.272;2023-07-29T05:51:33;98658.47;;;18.58;100.00
50282;BME280;36176;51.506;10.272;2023-07-29T05:54:00;98663.66;;;18.60;100.00
50282;BME280;36176;51.506;10.272;2023-07-29T05:56:27;98653.63;;;18.62;100.00
50282;BME280;36176;51.506;10.272;2023-07-29T05:58:54;98654.63;;;18.61;100.00
50282;BME280;36176;51.506;10.272;2023-07-29T06:07:08;98638.38;;;19.84;99.19
50282;BME280;36176;51.506;10.272;2023-07-29T06:09:36;98637.13;;;19.23;100.00
50282;BME280;36176;51.506;10.272;2023-07-29T06:12:05;58343.00;;;-145.31;100.00
50282;BME280;36176;51.506;10.272;2023-07-29T06:14:32;58343.00;;;-145.31;100.00
50282;BME280;36176;51.506;10.272;2023-07-29T06:17:01;58343.00;;;-145.31;100.00
50282;BME280;36176;51.506;10.272;2023-07-29T06:32:31;98642.94;;;21.34;89.97
50282;BME280;36176;51.506;10.272;2023-07-29T06:34:59;98643.59;;;21.01;91.71
50282;BME280;36176;51.506;10.272;2023-07-29T06:37:26;98640.66;;;20.87;91.81
